Time,TemperatureF,DewpointF,PressureIn,WindDirection,WindDirectionDegrees,WindSpeedMPH,WindSpeedGustMPH,Humidity,HourlyPrecipIn,Conditions,Clouds,dailyrainin,SolarRadiationWatts/m^2,SoftwareType,DateUTC
2013-05-31 08:05:00,51.0,42.3,30.25,ESE,121,1.0,2.0,72,0.00,,,0.00,454,Wunderground v.1.15,2013-05-31 15:05:00,
2013-05-31 08:10:00,51.5,42.8,30.25,ESE,105,1.0,7.0,72,0.00,,,0.00,468,Wunderground v.1.15,2013-05-31 15:10:00,
2013-05-31 08:15:00,51.3,42.2,30.25,SE,142,1.0,7.0,71,0.00,,,0.00,478,Wunderground v.1.15,2013-05-31 15:15:00,
2013-05-31 08:20:00,51.4,43.0,30.25,SE,132,2.0,2.0,73,0.00,,,0.00,494,Wunderground v.1.15,2013-05-31 15:20:00,
2013-05-31 08:25:00,51.3,42.2,30.25,West,275,2.0,7.0,71,0.00,,,0.00,508,Wunderground v.1.15,2013-05-31 15:25:00,
2013-05-31 08:30:00,51.9,42.4,30.25,SSE,157,2.0,7.0,70,0.00,,,0.00,522,Wunderground v.1.15,2013-05-31 15:30:00,
2013-05-31 08:35:00,52.2,42.7,30.25,SE,137,1.0,8.0,70,0.00,,,0.00,534,Wunderground v.1.15,2013-05-31 15:35:00,
2013-05-31 08:40:00,53.0,42.7,30.25,SSW,196,1.0,8.0,68,0.00,,,0.00,547,Wunderground v.1.15,2013-05-31 15:40:00,
2013-05-31 08:45:00,52.7,42.8,30.25,SE,143,2.0,8.0,69,0.00,,,0.00,561,Wunderground v.1.15,2013-05-31 15:45:00,
2013-05-31 08:50:00,52.8,42.9,30.25,WSW,255,2.0,8.0,69,0.00,,,0.00,573,Wunderground v.1.15,2013-05-31 15:50:00,
2013-05-31 09:00:00,54.3,42.8,30.25,WNW,302,2.0,8.0,65,0.00,,,0.00,598,Wunderground v.1.15,2013-05-31 16:00:00,
2013-05-31 09:05:00,54.4,42.5,30.25,West,269,2.0,8.0,64,0.00,,,0.00,613,Wunderground v.1.15,2013-05-31 16:05:00,
2013-05-31 09:15:00,56.6,42.9,30.25,WNW,296,1.0,7.0,60,0.00,,,0.00,635,Wunderground v.1.15,2013-05-31 16:15:00,
2013-05-31 09:25:00,55.9,43.1,30.25,NW,325,2.0,7.0,62,0.00,,,0.00,661,Wunderground v.1.15,2013-05-31 16:25:00,
2013-05-31 09:30:00,56.6,43.3,30.25,WNW,290,1.0,1.0,61,0.00,,,0.00,673,Wunderground v.1.15,2013-05-31 16:30:00,
2013-05-31 09:35:00,56.2,42.5,30.25,SSE,151,1.0,8.0,60,0.00,,,0.00,682,Wunderground v.1.15,2013-05-31 16:35:00,
2013-05-31 09:40:00,56.1,42.4,30.25,WSW,243,2.0,2.0,60,0.00,,,0.00,160,Wunderground v.1.15,2013-05-31 16:40:00,
2013-05-31 09:45:00,56.6,42.9,30.25,SE,131,1.0,3.0,60,0.00,,,0.00,339,Wunderground v.1.15,2013-05-31 16:45:00,
2013-05-31 09:50:00,56.5,42.3,30.25,SE,146,2.0,8.0,59,0.00,,,0.00,185,Wunderground v.1.15,2013-05-31 16:50:00,
2013-05-31 09:55:00,56.2,42.5,30.26,SSE,148,3.0,8.0,60,0.00,,,0.00,137,Wunderground v.1.15,2013-05-31 16:55:00,
2013-05-31 10:00:00,56.4,42.7,30.25,East,99,2.0,8.0,60,0.00,,,0.00,114,Wunderground v.1.15,2013-05-31 17:00:00,
2013-05-31 10:05:00,56.5,42.8,30.25,SE,146,2.0,9.0,60,0.00,,,0.00,118,Wunderground v.1.15,2013-05-31 17:05:00,
2013-05-31 10:15:00,57.5,42.4,30.25,WNW,296,3.0,9.0,57,0.00,,,0.00,765,Wunderground v.1.15,2013-05-31 17:15:00,
2013-05-31 10:25:00,58.8,44.0,30.25,South,170,2.0,9.0,58,0.00,,,0.00,782,Wunderground v.1.15,2013-05-31 17:25:00,
2013-05-31 10:35:00,59.1,43.9,30.25,SSE,147,2.0,9.0,57,0.00,,,0.00,810,Wunderground v.1.15,2013-05-31 17:35:00,
2013-05-31 10:40:00,59.4,43.2,30.25,WSW,258,2.0,9.0,55,0.00,,,0.00,828,Wunderground v.1.15,2013-05-31 17:40:00,
2013-05-31 10:45:00,59.1,42.9,30.25,ESE,121,3.0,9.0,55,0.00,,,0.00,828,Wunderground v.1.15,2013-05-31 17:45:00,
2013-05-31 10:50:00,58.8,41.7,30.25,West,261,3.0,3.0,53,0.00,,,0.00,826,Wunderground v.1.15,2013-05-31 17:50:00,
2013-05-31 10:55:00,60.2,43.0,30.25,SE,130,2.0,9.0,53,0.00,,,0.00,833,Wunderground v.1.15,2013-05-31 17:55:00,
2013-05-31 11:00:00,59.9,43.2,30.25,West,259,2.0,9.0,54,0.00,,,0.00,840,Wunderground v.1.15,2013-05-31 18:00:00,
2013-05-31 11:10:00,60.4,43.2,30.25,SE,145,3.0,8.0,53,0.00,,,0.00,889,Wunderground v.1.15,2013-05-31 18:10:00,
2013-05-31 11:15:00,60.0,41.8,30.25,ESE,107,2.0,8.0,51,0.00,,,0.00,877,Wunderground v.1.15,2013-05-31 18:15:00,
2013-05-31 11:20:00,60.7,43.0,30.25,West,277,3.0,8.0,52,0.00,,,0.00,893,Wunderground v.1.15,2013-05-31 18:20:00,
2013-05-31 11:25:00,60.9,42.6,30.25,WSW,247,3.0,8.0,51,0.00,,,0.00,914,Wunderground v.1.15,2013-05-31 18:25:00,
2013-05-31 11:35:00,61.6,42.8,30.25,SSW,199,3.0,8.0,50,0.00,,,0.00,932,Wunderground v.1.15,2013-05-31 18:35:00,
2013-05-31 11:40:00,61.4,42.1,30.25,SSE,158,3.0,3.0,49,0.00,,,0.00,967,Wunderground v.1.15,2013-05-31 18:40:00,
2013-05-31 11:50:00,62.0,43.7,30.25,South,190,2.0,8.0,51,0.00,,,0.00,193,Wunderground v.1.15,2013-05-31 18:50:00,
2013-05-31 11:55:00,61.8,43.0,30.25,ESE,123,2.0,8.0,50,0.00,,,0.00,1060,Wunderground v.1.15,2013-05-31 18:55:00,
2013-05-31 12:00:00,62.3,43.9,30.24,WSW,242,2.0,8.0,51,0.00,,,0.00,1058,Wunderground v.1.15,2013-05-31 19:00:00,
2013-05-31 12:05:00,62.9,42.4,30.24,SW,215,2.0,13.0,47,0.00,,,0.00,1023,Wunderground v.1.15,2013-05-31 19:05:00,
2013-05-31 12:15:00,63.0,42.4,30.24,West,269,3.0,13.0,47,0.00,,,0.00,156,Wunderground v.1.15,2013-05-31 19:15:00,
2013-05-31 12:25:00,63.6,43.5,30.24,SE,145,2.0,13.0,48,0.00,,,0.00,1005,Wunderground v.1.15,2013-05-31 19:25:00,
2013-05-31 12:30:00,63.4,41.7,30.24,SE,133,2.0,13.0,45,0.00,,,0.00,281,Wunderground v.1.15,2013-05-31 19:30:00,
2013-05-31 12:35:00,63.2,42.6,30.24,SE,135,2.0,13.0,47,0.00,,,0.00,1055,Wunderground v.1.15,2013-05-31 19:35:00,
2013-05-31 12:45:00,63.9,42.1,30.23,ESE,105,2.0,9.0,45,0.00,,,0.00,1079,Wunderground v.1.15,2013-05-31 19:45:00,
2013-05-31 12:50:00,63.9,41.5,30.23,South,180,2.0,9.0,44,0.00,,,0.00,1053,Wunderground v.1.15,2013-05-31 19:50:00,
2013-05-31 12:55:00,64.5,42.1,30.23,ESE,120,2.0,9.0,44,0.00,,,0.00,1078,Wunderground v.1.15,2013-05-31 19:55:00,
2013-05-31 13:00:00,64.0,40.4,30.23,SW,234,3.0,3.0,42,0.00,,,0.00,190,Wunderground v.1.15,2013-05-31 20:00:00,
2013-05-31 13:10:00,63.3,41.6,30.23,ESE,117,2.0,2.0,45,0.00,,,0.00,1046,Wunderground v.1.15,2013-05-31 20:10:00,
2013-05-31 13:15:00,64.3,40.7,30.23,SE,139,1.0,8.0,42,0.00,,,0.00,186,Wunderground v.1.15,2013-05-31 20:15:00,
2013-05-31 13:20:00,63.8,39.6,30.23,SSE,165,1.0,8.0,41,0.00,,,0.00,281,Wunderground v.1.15,2013-05-31 20:20:00,
2013-05-31 13:25:00,64.5,40.9,30.23,South,181,3.0,8.0,42,0.00,,,0.00,1074,Wunderground v.1.15,2013-05-31 20:25:00,
2013-05-31 13:30:00,65.0,40.7,30.23,SE,146,3.0,8.0,41,0.00,,,0.00,1063,Wunderground v.1.15,2013-05-31 20:30:00,
2013-05-31 13:35:00,64.7,39.2,30.23,SE,128,3.0,8.0,39,0.00,,,0.00,1078,Wunderground v.1.15,2013-05-31 20:35:00,
2013-05-31 13:45:00,65.8,38.8,30.23,SW,225,2.0,4.0,37,0.00,,,0.00,230,Wunderground v.1.15,2013-05-31 20:45:00,
2013-05-31 13:50:00,64.7,37.1,30.23,SSE,156,3.0,8.0,36,0.00,,,0.00,230,Wunderground v.1.15,2013-05-31 20:50:00,
2013-05-31 13:55:00,64.8,39.9,30.23,South,175,2.0,8.0,40,0.00,,,0.00,209,Wunderground v.1.15,2013-05-31 20:55:00,
2013-05-31 14:00:00,64.2,38.0,30.23,SE,143,2.0,2.0,38,0.00,,,0.00,188,Wunderground v.1.15,2013-05-31 21:00:00,
2013-05-31 14:05:00,63.8,38.4,30.23,SSW,204,2.0,11.0,39,0.00,,,0.00,204,Wunderground v.1.15,2013-05-31 21:05:00,
2013-05-31 14:15:00,64.1,38.0,30.23,West,268,0.0,11.0,38,0.00,,,0.00,251,Wunderground v.1.15,2013-05-31 21:15:00,
2013-05-31 14:20:00,65.0,39.4,30.23,East,94,1.0,11.0,39,0.00,,,0.00,1079,Wunderground v.1.15,2013-05-31 21:20:00,
2013-05-31 14:25:00,65.6,39.3,30.23,WSW,248,2.0,11.0,38,0.00,,,0.00,1056,Wunderground v.1.15,2013-05-31 21:25:00,
2013-05-31 14:30:00,66.1,40.4,30.22,West,263,2.0,2.0,39,0.00,,,0.00,1005,Wunderground v.1.15,2013-05-31 21:30:00,
2013-05-31 14:40:00,66.4,38.6,30.23,South,169,2.0,10.0,36,0.00,,,0.00,362,Wunderground v.1.15,2013-05-31 21:40:00,
2013-05-31 14:45:00,65.7,38.7,30.22,WNW,285,2.0,10.0,37,0.00,,,0.00,287,Wunderground v.1.15,2013-05-31 21:45:00,
2013-05-31 14:50:00,65.2,38.9,30.22,SW,226,2.0,10.0,38,0.00,,,0.00,230,Wunderground v.1.15,2013-05-31 21:50:00,
2013-05-31 14:55:00,65.1,39.5,30.22,WSW,248,1.0,10.0,39,0.00,,,0.00,309,Wunderground v.1.15,2013-05-31 21:55:00,
2013-05-31 15:00:00,65.0,38.8,30.22,West,267,2.0,10.0,38,0.00,,,0.00,283,Wunderground v.1.15,2013-05-31 22:00:00,
2013-05-31 15:05:00,64.8,38.6,30.22,WSW,256,2.0,10.0,38,0.00,,,0.00,271,Wunderground v.1.15,2013-05-31 22:05:00,
2013-05-31 15:10:00,65.0,38.1,30.22,WSW,244,1.0,10.0,37,0.00,,,0.00,313,Wunderground v.1.15,2013-05-31 22:10:00,
2013-05-31 15:20:00,65.6,37.9,30.22,SSW,193,2.0,2.0,36,0.00,,,0.00,302,Wunderground v.1.15,2013-05-31 22:20:00,
2013-05-31 15:25:00,66.2,37.7,30.22,WNW,302,2.0,10.0,35,0.00,,,0.00,301,Wunderground v.1.15,2013-05-31 22:25:00,
2013-05-31 15:30:00,66.3,37.1,30.22,SW,214,2.0,10.0,34,0.00,,,0.00,940,Wunderground v.1.15,2013-05-31 22:30:00,
2013-05-31 15:35:00,67.2,37.1,30.22,SSW,193,1.0,10.0,33,0.00,,,0.00,900,Wunderground v.1.15,2013-05-31 22:35:00,
2013-05-31 15:45:00,67.3,38.0,30.22,West,259,4.0,9.0,34,0.00,,,0.00,933,Wunderground v.1.15,2013-05-31 22:45:00,
2013-05-31 15:50:00,67.1,37.0,30.22,SSE,148,4.0,4.0,33,0.00,,,0.00,229,Wunderground v.1.15,2013-05-31 22:50:00,
2013-05-31 15:55:00,66.2,37.7,30.22,WSW,248,3.0,9.0,35,0.00,,,0.00,204,Wunderground v.1.15,2013-05-31 22:55:00,
2013-05-31 16:00:00,65.6,37.2,30.22,WSW,247,2.0,9.0,35,0.00,,,0.00,197,Wunderground v.1.15,2013-05-31 23:00:00,
2013-05-31 16:05:00,65.6,37.9,30.22,South,175,1.0,9.0,36,0.00,,,0.00,178,Wunderground v.1.15,2013-05-31 23:05:00,
2013-05-31 16:15:00,65.1,36.8,30.22,SSE,163,2.0,8.0,35,0.00,,,0.00,151,Wunderground v.1.15,2013-05-31 23:15:00,
2013-05-31 16:20:00,65.1,37.5,30.22,WNW,284,2.0,2.0,36,0.00,,,0.00,144,Wunderground v.1.15,2013-05-31 23:20:00,
2013-05-31 16:30:00,65.3,37.6,30.22,SE,134,1.0,8.0,36,0.00,,,0.00,207,Wunderground v.1.15,2013-05-31 23:30:00,
2013-05-31 16:35:00,65.2,36.8,30.22,SE,139,1.0,10.0,35,0.00,,,0.00,236,Wunderground v.1.15,2013-05-31 23:35:00,
2013-05-31 16:45:00,65.4,37.0,30.22,SSW,209,1.0,10.0,35,0.00,,,0.00,206,Wunderground v.1.15,2013-05-31 23:45:00,
2013-05-31 16:55:00,65.3,37.6,30.22,WSW,254,2.0,10.0,36,0.00,,,0.00,207,Wunderground v.1.15,2013-05-31 23:55:00,
2013-05-31 17:00:00,65.6,38.6,30.22,NW,325,2.0,2.0,37,0.00,,,0.00,214,Wunderground v.1.15,2013-06-01 00:00:00,
2013-05-31 17:05:00,65.8,38.8,30.22,West,271,2.0,8.0,37,0.00,,,0.00,220,Wunderground v.1.15,2013-06-01 00:05:00,
2013-05-31 17:10:00,65.9,38.2,30.22,WNW,282,2.0,2.0,36,0.00,,,0.00,227,Wunderground v.1.15,2013-06-01 00:10:00,
2013-05-31 17:20:00,66.0,38.3,30.22,West,263,0.0,8.0,36,0.00,,,0.00,181,Wunderground v.1.15,2013-06-01 00:20:00,
2013-05-31 17:25:00,66.4,37.2,30.22,WNW,289,0.0,8.0,34,0.00,,,0.00,570,Wunderground v.1.15,2013-06-01 00:25:00,
2013-05-31 17:30:00,67.1,36.2,30.22,WNW,289,0.0,8.0,32,0.00,,,0.00,534,Wunderground v.1.15,2013-06-01 00:30:00,
2013-05-31 17:35:00,67.6,37.5,30.22,WSW,258,0.0,8.0,33,0.00,,,0.00,499,Wunderground v.1.15,2013-06-01 00:35:00,
2013-05-31 17:45:00,67.6,36.7,30.21,SW,221,2.0,4.0,32,0.00,,,0.00,116,Wunderground v.1.15,2013-06-01 00:45:00,
2013-05-31 17:55:00,67.0,37.7,30.21,WSW,244,1.0,7.0,34,0.00,,,0.00,60,Wunderground v.1.15,2013-06-01 00:55:00,
2013-05-31 18:05:00,66.0,39.0,30.22,West,275,1.0,4.0,37,0.00,,,0.00,234,Wunderground v.1.15,2013-06-01 01:05:00,
2013-05-31 18:15:00,65.4,36.3,30.21,West,275,0.0,4.0,34,0.00,,,0.00,58,Wunderground v.1.15,2013-06-01 01:15:00,
2013-05-31 18:25:00,65.3,42.8,30.21,NW,325,0.0,4.0,44,0.00,,,0.00,221,Wunderground v.1.15,2013-06-01 01:25:00,
2013-05-31 18:35:00,65.9,42.8,30.21,North,360,1.0,4.0,43,0.00,,,0.00,100,Wunderground v.1.15,2013-06-01 01:35:00,
2013-05-31 18:40:00,65.6,42.5,30.21,North,351,1.0,4.0,43,0.00,,,0.00,118,Wunderground v.1.15,2013-06-01 01:40:00,
2013-05-31 18:45:00,65.3,42.8,30.21,NNW,342,2.0,4.0,44,0.00,,,0.00,301,Wunderground v.1.15,2013-06-01 01:45:00,
2013-05-31 18:50:00,65.4,41.1,30.21,NNW,342,1.0,1.0,41,0.00,,,0.00,271,Wunderground v.1.15,2013-06-01 01:50:00,
2013-05-31 19:00:00,66.4,42.6,30.21,NNW,342,0.0,4.0,42,0.00,,,0.00,230,Wunderground v.1.15,2013-06-01 02:00:00,
2013-05-31 19:05:00,66.8,41.7,30.21,NNW,342,0.0,4.0,40,0.00,,,0.00,142,Wunderground v.1.15,2013-06-01 02:05:00,
2013-05-31 19:10:00,66.6,41.5,30.21,NNW,342,0.0,4.0,40,0.00,,,0.00,54,Wunderground v.1.15,2013-06-01 02:10:00,
2013-05-31 19:15:00,65.8,42.1,30.21,NNW,342,1.0,4.0,42,0.00,,,0.00,42,Wunderground v.1.15,2013-06-01 02:15:00,
2013-05-31 19:20:00,64.9,42.5,30.21,NNW,342,1.0,1.0,44,0.00,,,0.00,35,Wunderground v.1.15,2013-06-01 02:20:00,
2013-05-31 19:30:00,63.5,40.0,30.21,NNW,342,0.0,4.0,42,0.00,,,0.00,30,Wunderground v.1.15,2013-06-01 02:30:00,
2013-05-31 19:35:00,62.9,41.8,30.21,NNW,342,0.0,4.0,46,0.00,,,0.00,28,Wunderground v.1.15,2013-06-01 02:35:00,
2013-05-31 19:40:00,62.3,42.3,30.21,NNW,342,0.0,3.0,48,0.00,,,0.00,23,Wunderground v.1.15,2013-06-01 02:40:00,
2013-05-31 19:50:00,61.2,41.3,30.20,NNW,342,0.0,3.0,48,0.00,,,0.00,21,Wunderground v.1.15,2013-06-01 02:50:00,
2013-05-31 20:00:00,60.3,42.6,30.20,NNW,342,0.0,3.0,52,0.00,,,0.00,18,Wunderground v.1.15,2013-06-01 03:00:00,
2013-05-31 20:05:00,59.9,41.7,30.20,NNW,342,0.0,3.0,51,0.00,,,0.00,16,Wunderground v.1.15,2013-06-01 03:05:00,
2013-05-31 20:15:00,58.8,41.2,30.21,NNW,342,0.0,3.0,52,0.00,,,0.00,12,Wunderground v.1.15,2013-06-01 03:15:00,
2013-05-31 20:25:00,57.8,40.8,30.21,NNW,342,0.0,3.0,53,0.00,,,0.00,9,Wunderground v.1.15,2013-06-01 03:25:00,
2013-05-31 20:30:00,57.3,41.3,30.21,NNW,342,0.0,3.0,55,0.00,,,0.00,7,Wunderground v.1.15,2013-06-01 03:30:00,
2013-05-31 20:35:00,56.9,40.9,30.21,NNW,342,0.0,3.0,55,0.00,,,0.00,5,Wunderground v.1.15,2013-06-01 03:35:00,
2013-05-31 20:40:00,56.4,40.9,30.21,NNW,342,0.0,1.0,56,0.00,,,0.00,0,Wunderground v.1.15,2013-06-01 03:40:00,
2013-05-31 20:45:00,56.0,41.0,30.21,NNW,342,0.0,1.0,57,0.00,,,0.00,0,Wunderground v.1.15,2013-06-01 03:45:00,
2013-05-31 20:50:00,55.6,41.0,30.21,NNW,342,0.0,1.0,58,0.00,,,0.00,0,Wunderground v.1.15,2013-06-01 03:50:00,
2013-05-31 20:55:00,55.1,41.0,30.21,NNW,342,0.0,1.0,59,0.00,,,0.00,0,Wunderground v.1.15,2013-06-01 03:55:00,
2013-05-31 21:05:00,54.3,41.1,30.22,NNW,342,0.0,1.0,61,0.00,,,0.00,0,Wunderground v.1.15,2013-06-01 04:05:00,
2013-05-31 21:10:00,54.0,41.7,30.21,NNW,342,0.0,0.0,63,0.00,,,0.00,0,Wunderground v.1.15,2013-06-01 04:10:00,
2013-05-31 21:20:00,53.4,41.1,30.22,NNW,342,0.0,0.0,63,0.00,,,0.00,0,Wunderground v.1.15,2013-06-01 04:20:00,
2013-05-31 21:30:00,52.8,41.7,30.22,NNW,342,0.0,0.0,66,0.00,,,0.00,0,Wunderground v.1.15,2013-06-01 04:30:00,